createdAt,value
2017-12-17T00:00:24.743Z,96.78
2017-12-17T00:01:24.697Z,96.97
2017-12-17T00:02:24.656Z,97.73
2017-12-17T00:03:24.795Z,97.92
2017-12-17T00:04:24.822Z,96.88
2017-12-17T00:05:24.540Z,97.54
2017-12-17T00:06:24.493Z,97.92
2017-12-17T00:07:24.451Z,97.82
2017-12-17T00:08:24.409Z,97.82
2017-12-17T00:09:24.371Z,97.63
2017-12-17T00:10:24.343Z,98.01
2017-12-17T00:11:24.289Z,98.11
2017-12-17T00:12:24.249Z,98.30
2017-12-17T00:13:24.205Z,98.20
2017-12-17T00:14:24.165Z,98.20
2017-12-17T00:15:24.137Z,98.49
2017-12-17T00:16:24.087Z,98.30
2017-12-17T00:17:24.043Z,98.20
2017-12-17T00:18:24.006Z,98.77
2017-12-17T00:19:23.960Z,98.30
2017-12-17T00:20:23.922Z,98.58
2017-12-17T00:21:24.413Z,98.68
2017-12-17T00:22:23.845Z,98.86
2017-12-17T00:23:23.797Z,99.43
2017-12-17T00:24:23.775Z,99.62
2017-12-17T00:25:23.744Z,98.96
2017-12-17T00:26:23.676Z,99.52
2017-12-17T00:27:23.700Z,98.49
2017-12-17T00:28:23.631Z,98.58
2017-12-17T00:29:23.568Z,98.20
2017-12-17T00:30:23.738Z,98.86
2017-12-17T00:31:23.502Z,98.49
2017-12-17T00:32:23.437Z,97.82
2017-12-17T00:33:23.391Z,97.73
2017-12-17T00:34:23.351Z,98.11
2017-12-17T00:35:23.332Z,97.92
2017-12-17T00:36:23.275Z,98.11
2017-12-17T00:37:23.227Z,98.77
2017-12-17T00:38:23.247Z,98.39
2017-12-17T00:39:23.718Z,97.63
2017-12-17T00:40:23.105Z,98.30
2017-12-17T00:41:23.094Z,98.11
2017-12-17T00:42:23.022Z,97.73
2017-12-17T00:43:22.985Z,98.11
2017-12-17T00:44:22.942Z,98.30
2017-12-17T00:45:22.901Z,99.81
2017-12-17T00:46:22.858Z,98.68
2017-12-17T00:47:22.832Z,98.58
2017-12-17T00:48:22.781Z,98.58
2017-12-17T00:49:22.761Z,98.77
2017-12-17T00:50:22.696Z,98.77
2017-12-17T00:51:22.666Z,98.58
2017-12-17T00:52:22.644Z,98.49
2017-12-17T00:53:22.601Z,98.77
2017-12-17T00:54:22.531Z,99.90
2017-12-17T00:55:22.489Z,99.52
2017-12-17T00:56:22.460Z,98.68
2017-12-17T00:57:22.408Z,98.58
2017-12-17T00:58:22.373Z,98.77
2017-12-17T00:59:22.327Z,99.71
2017-12-17T01:00:22.284Z,99.43
2017-12-17T01:01:22.266Z,99.99
2017-12-17T01:02:22.250Z,99.43
2017-12-17T01:03:22.165Z,99.81
2017-12-17T01:04:22.127Z,99.99
2017-12-17T01:05:22.084Z,99.99
2017-12-17T01:06:22.040Z,99.99
2017-12-17T01:07:22.003Z,99.99
2017-12-17T01:08:21.970Z,99.99
2017-12-17T01:09:21.922Z,99.99
2017-12-17T01:10:21.899Z,99.99
2017-12-17T01:11:21.838Z,99.90
2017-12-17T01:12:21.799Z,99.99
2017-12-17T01:13:21.759Z,99.99
2017-12-17T01:14:21.715Z,99.99
2017-12-17T01:15:21.696Z,99.99
2017-12-17T01:16:21.632Z,99.99
2017-12-17T01:17:21.905Z,99.81
2017-12-17T01:18:21.550Z,99.52
2017-12-17T01:19:21.510Z,99.99
2017-12-17T01:20:21.482Z,99.99
2017-12-17T01:21:21.428Z,99.99
2017-12-17T01:22:21.388Z,99.99
2017-12-17T01:23:21.346Z,99.62
2017-12-17T01:24:21.305Z,99.62
2017-12-17T01:25:21.266Z,99.81
2017-12-17T01:26:21.225Z,99.99
2017-12-17T01:27:21.190Z,99.99
2017-12-17T01:28:21.142Z,99.99
2017-12-17T01:29:21.106Z,99.99
2017-12-17T01:30:21.064Z,99.99
2017-12-17T01:31:21.033Z,99.99
2017-12-17T01:32:20.979Z,99.99
2017-12-17T01:33:20.939Z,99.99
2017-12-17T01:34:20.897Z,99.99
2017-12-17T01:35:20.860Z,99.99
2017-12-17T01:36:20.820Z,99.99
2017-12-17T01:37:20.775Z,99.99
2017-12-17T01:38:20.737Z,99.99
2017-12-17T01:39:20.694Z,99.99
2017-12-17T01:40:20.657Z,99.99
2017-12-17T01:41:20.635Z,99.99
2017-12-17T01:42:20.580Z,99.99
2017-12-17T01:43:20.530Z,99.99
2017-12-17T01:44:20.490Z,99.99
2017-12-17T01:45:20.450Z,99.99
2017-12-17T01:46:20.413Z,99.99
2017-12-17T01:47:20.370Z,99.99
2017-12-17T01:48:20.345Z,99.99
2017-12-17T01:49:20.283Z,99.99
2017-12-17T01:50:20.244Z,99.99
2017-12-17T01:51:20.216Z,99.99
2017-12-17T01:52:20.253Z,99.99
2017-12-17T01:53:20.122Z,99.99
2017-12-17T01:54:20.082Z,99.99
2017-12-17T01:55:20.043Z,99.99
2017-12-17T01:56:19.999Z,99.99
2017-12-17T01:57:19.960Z,99.99
2017-12-17T01:58:19.917Z,99.99
2017-12-17T01:59:19.920Z,99.99
2017-12-17T02:00:19.845Z,99.99
2017-12-17T02:01:19.794Z,99.99
2017-12-17T02:02:19.770Z,99.99
2017-12-17T02:03:19.711Z,99.99
2017-12-17T02:04:19.693Z,99.99
2017-12-17T02:05:19.631Z,99.99
2017-12-17T02:06:19.608Z,99.99
2017-12-17T02:07:20.172Z,99.99
2017-12-17T02:08:19.510Z,99.99
2017-12-17T02:09:19.464Z,99.99
2017-12-17T02:10:19.426Z,99.99
2017-12-17T02:11:19.716Z,99.99
2017-12-17T02:12:19.345Z,99.99
2017-12-17T02:13:19.311Z,99.99
2017-12-17T02:14:19.274Z,99.99
2017-12-17T02:15:19.220Z,99.99
2017-12-17T02:16:19.180Z,99.99
2017-12-17T02:17:19.136Z,99.99
2017-12-17T02:18:19.103Z,99.99
2017-12-17T02:19:19.057Z,99.99
2017-12-17T02:20:19.016Z,99.99
2017-12-17T02:21:18.973Z,99.99
2017-12-17T02:22:18.942Z,99.99
2017-12-17T02:23:18.910Z,99.99
2017-12-17T02:24:18.847Z,99.99
2017-12-17T02:25:18.808Z,99.99
2017-12-17T02:26:18.769Z,99.99
2017-12-17T02:27:18.730Z,99.99
2017-12-17T02:28:18.685Z,99.99
2017-12-17T02:29:18.644Z,99.99
2017-12-17T02:30:18.632Z,99.99
2017-12-17T02:31:18.593Z,99.99
2017-12-17T02:32:18.533Z,99.99
2017-12-17T02:33:18.497Z,99.99
2017-12-17T02:34:18.440Z,99.99
2017-12-17T02:35:18.399Z,99.99
2017-12-17T02:36:18.362Z,99.99
2017-12-17T02:37:18.336Z,99.99
2017-12-17T02:38:18.279Z,99.99
2017-12-17T02:39:18.236Z,99.99
2017-12-17T02:40:18.194Z,99.99
2017-12-17T02:41:18.153Z,99.99
2017-12-17T02:42:18.111Z,99.99
2017-12-17T02:43:18.082Z,99.99
2017-12-17T02:44:18.043Z,99.99
2017-12-17T02:45:18.013Z,99.99
2017-12-17T02:46:17.957Z,99.99
2017-12-17T02:47:17.934Z,99.99
2017-12-17T02:48:17.865Z,99.99
2017-12-17T02:49:17.828Z,99.99
2017-12-17T02:50:17.811Z,99.99
2017-12-17T02:51:17.760Z,99.99
2017-12-17T02:52:17.706Z,99.99
2017-12-17T02:53:17.659Z,99.99
2017-12-17T02:54:17.684Z,99.99
2017-12-17T02:55:17.578Z,99.99
2017-12-17T02:56:17.538Z,99.99
2017-12-17T02:57:17.497Z,99.99
2017-12-17T02:58:17.454Z,99.99
2017-12-17T02:59:17.418Z,99.99
2017-12-17T03:00:17.379Z,99.99
2017-12-17T03:01:17.335Z,99.99
2017-12-17T03:02:17.293Z,99.99
2017-12-17T03:03:17.250Z,99.99
2017-12-17T03:04:17.223Z,99.99
2017-12-17T03:05:17.180Z,99.99
2017-12-17T03:06:17.165Z,99.99
2017-12-17T03:07:17.086Z,99.99
2017-12-17T03:08:17.049Z,99.99
2017-12-17T03:09:17.004Z,99.99
2017-12-17T03:10:16.966Z,99.99
2017-12-17T03:11:16.922Z,99.99
2017-12-17T03:12:16.882Z,99.99
2017-12-17T03:13:16.841Z,99.99
2017-12-17T03:14:16.802Z,99.99
2017-12-17T03:15:16.769Z,99.99
2017-12-17T03:16:16.714Z,99.99
2017-12-17T03:17:16.683Z,99.99
2017-12-17T03:18:16.632Z,99.99
2017-12-17T03:19:16.594Z,99.99
2017-12-17T03:20:16.553Z,99.99
2017-12-17T03:21:16.509Z,99.99
2017-12-17T03:22:16.468Z,99.99
2017-12-17T03:23:16.429Z,99.99
2017-12-17T03:24:16.392Z,99.99
2017-12-17T03:25:16.352Z,99.99
2017-12-17T03:26:16.306Z,99.99
2017-12-17T03:27:16.263Z,99.99
2017-12-17T03:28:16.242Z,99.99
2017-12-17T03:29:16.190Z,99.99
2017-12-17T03:30:16.141Z,99.99
2017-12-17T03:31:16.114Z,99.99
2017-12-17T03:32:16.057Z,99.99
2017-12-17T03:33:16.032Z,99.99
2017-12-17T03:34:15.979Z,99.99
2017-12-17T03:35:15.935Z,99.99
2017-12-17T03:36:15.923Z,99.85
2017-12-17T03:37:15.878Z,99.95
2017-12-17T03:38:15.831Z,99.38
2017-12-17T03:39:15.771Z,98.63
2017-12-17T03:40:15.761Z,98.15
2017-12-17T03:41:15.686Z,97.49
2017-12-17T03:42:15.651Z,96.83
2017-12-17T03:43:15.615Z,96.92
2017-12-17T03:44:15.601Z,97.11
2017-12-17T03:45:15.538Z,96.92
2017-12-17T03:46:15.501Z,96.73
2017-12-17T03:47:15.463Z,96.92
2017-12-17T03:48:15.417Z,96.64
2017-12-17T03:49:15.357Z,97.30
2017-12-17T03:50:15.317Z,96.73
2017-12-17T03:51:15.284Z,97.39
2017-12-17T03:52:15.231Z,97.11
2017-12-17T03:53:15.190Z,97.02
2017-12-17T03:54:15.147Z,96.83
2017-12-17T03:55:15.109Z,97.87
2017-12-17T03:56:15.095Z,97.20
2017-12-17T03:57:15.023Z,97.77
2017-12-17T03:58:14.982Z,97.20
2017-12-17T03:59:14.940Z,96.92
2017-12-17T04:00:14.900Z,96.92
2017-12-17T04:01:14.857Z,97.11
2017-12-17T04:02:14.817Z,97.87
2017-12-17T04:03:14.791Z,97.87
2017-12-17T04:04:14.734Z,97.68
2017-12-17T04:05:14.692Z,97.68
2017-12-17T04:06:14.661Z,97.20
2017-12-17T04:07:14.608Z,97.87
2017-12-17T04:08:14.567Z,97.58
2017-12-17T04:09:14.528Z,98.06
2017-12-17T04:10:14.486Z,97.02
2017-12-17T04:11:14.444Z,97.96
2017-12-17T04:12:14.403Z,97.49
2017-12-17T04:13:14.360Z,97.39
2017-12-17T04:14:14.319Z,97.49
2017-12-17T04:15:14.277Z,97.39
2017-12-17T04:16:14.297Z,97.02
2017-12-17T04:17:14.197Z,97.87
2017-12-17T04:18:14.153Z,97.20
2017-12-17T04:19:14.113Z,96.92
2017-12-17T04:20:14.072Z,97.20
2017-12-17T04:21:14.048Z,97.02
2017-12-17T04:22:13.988Z,97.77
2017-12-17T04:23:13.947Z,97.11
2017-12-17T04:24:13.905Z,97.11
2017-12-17T04:25:13.872Z,97.68
2017-12-17T04:26:13.828Z,97.68
2017-12-17T04:27:13.779Z,98.06
2017-12-17T04:28:13.738Z,98.15
2017-12-17T04:29:14.583Z,97.87
2017-12-17T04:30:13.657Z,97.02
2017-12-17T04:31:13.652Z,96.92
2017-12-17T04:32:13.578Z,97.39
2017-12-17T04:33:13.531Z,96.92
2017-12-17T04:34:13.488Z,96.92
2017-12-17T04:35:13.453Z,97.02
2017-12-17T04:36:13.436Z,97.20
2017-12-17T04:37:13.365Z,97.68
2017-12-17T04:38:13.342Z,97.49
2017-12-17T04:39:13.284Z,97.11
2017-12-17T04:40:13.251Z,97.30
2017-12-17T04:41:13.197Z,97.11
2017-12-17T04:42:13.162Z,96.92
2017-12-17T04:43:13.117Z,97.11
2017-12-17T04:44:13.074Z,97.02
2017-12-17T04:45:13.033Z,96.92
2017-12-17T04:46:12.994Z,97.11
2017-12-17T04:47:12.975Z,96.35
2017-12-17T04:48:12.909Z,96.45
2017-12-17T04:49:12.867Z,97.02
2017-12-17T04:50:12.827Z,96.92
2017-12-17T04:51:12.786Z,97.49
2017-12-17T04:52:12.750Z,97.11
2017-12-17T04:53:12.702Z,97.11
2017-12-17T04:54:12.660Z,97.11
2017-12-17T04:55:12.658Z,97.02
2017-12-17T04:56:12.579Z,97.11
2017-12-17T04:57:12.534Z,97.30
2017-12-17T04:58:12.494Z,96.35
2017-12-17T04:59:12.460Z,97.02
2017-12-17T05:00:12.435Z,97.58
2017-12-17T05:01:12.371Z,96.92
2017-12-17T05:02:12.330Z,97.39
2017-12-17T05:03:12.306Z,96.83
2017-12-17T05:04:12.247Z,97.20
2017-12-17T05:05:12.216Z,97.02
2017-12-17T05:06:12.164Z,96.92
2017-12-17T05:07:12.125Z,96.83
2017-12-17T05:08:12.086Z,96.92
2017-12-17T05:09:12.040Z,97.02
2017-12-17T05:10:12.001Z,97.02
2017-12-17T05:11:12.012Z,96.83
2017-12-17T05:12:11.921Z,97.20
2017-12-17T05:13:11.879Z,96.26
2017-12-17T05:14:11.835Z,96.16
2017-12-17T05:15:12.112Z,96.35
2017-12-17T05:16:11.752Z,96.73
2017-12-17T05:17:11.708Z,96.92
2017-12-17T05:18:11.666Z,96.54
2017-12-17T05:19:11.629Z,96.92
2017-12-17T05:20:11.592Z,97.39
2017-12-17T05:21:11.543Z,97.02
2017-12-17T05:22:11.504Z,96.07
2017-12-17T05:23:11.465Z,96.16
2017-12-17T05:24:11.425Z,96.07
2017-12-17T05:25:11.376Z,97.02
2017-12-17T05:26:11.337Z,96.92
2017-12-17T05:27:11.294Z,97.11
2017-12-17T05:28:11.253Z,96.92
2017-12-17T05:29:11.213Z,97.02
2017-12-17T05:30:11.176Z,96.92
2017-12-17T05:31:11.129Z,96.45
2017-12-17T05:32:11.090Z,97.20
2017-12-17T05:33:11.049Z,96.92
2017-12-17T05:34:11.008Z,97.02
2017-12-17T05:35:10.966Z,97.02
2017-12-17T05:36:10.923Z,96.83
2017-12-17T05:37:10.885Z,96.83
2017-12-17T05:38:10.841Z,96.45
2017-12-17T05:39:10.801Z,96.35
2017-12-17T05:40:10.761Z,96.92
2017-12-17T05:41:10.719Z,97.39
2017-12-17T05:42:10.677Z,97.02
2017-12-17T05:43:10.637Z,97.11
2017-12-17T05:44:10.594Z,96.92
2017-12-17T05:45:11.034Z,96.92
2017-12-17T05:46:10.518Z,97.02
2017-12-17T05:47:11.040Z,97.30
2017-12-17T05:48:10.431Z,96.83
2017-12-17T05:49:10.390Z,97.02
2017-12-17T05:50:10.345Z,96.73
2017-12-17T05:51:10.307Z,96.54
2017-12-17T05:52:10.265Z,96.45
2017-12-17T05:53:10.737Z,96.26
2017-12-17T05:54:10.183Z,97.11
2017-12-17T05:55:10.140Z,97.20
2017-12-17T05:56:10.098Z,96.92
2017-12-17T05:57:10.058Z,96.35
2017-12-17T05:58:10.062Z,96.54
2017-12-17T05:59:09.975Z,96.73
2017-12-17T06:00:10.151Z,97.11
2017-12-17T06:01:09.891Z,96.73
2017-12-17T06:02:09.849Z,97.02
2017-12-17T06:03:09.811Z,96.45
2017-12-17T06:04:09.768Z,96.54
2017-12-17T06:05:09.724Z,96.54
2017-12-17T06:06:09.685Z,96.45
2017-12-17T06:07:09.647Z,96.35
2017-12-17T06:08:09.740Z,95.69
2017-12-17T06:09:09.561Z,95.69
2017-12-17T06:10:09.519Z,96.35
2017-12-17T06:11:09.479Z,95.40
2017-12-17T06:12:09.440Z,96.07
2017-12-17T06:13:09.420Z,95.69
2017-12-17T06:14:09.355Z,95.69
2017-12-17T06:15:09.312Z,95.40
2017-12-17T06:16:09.272Z,95.40
2017-12-17T06:17:09.230Z,95.69
2017-12-17T06:18:09.189Z,95.59
2017-12-17T06:19:09.148Z,95.50
2017-12-17T06:20:09.105Z,95.88
2017-12-17T06:21:09.065Z,95.78
2017-12-17T06:22:09.051Z,96.07
2017-12-17T06:23:08.984Z,96.16
2017-12-17T06:24:08.947Z,95.78
2017-12-17T06:25:08.900Z,96.16
2017-12-17T06:26:08.856Z,95.88
2017-12-17T06:27:08.815Z,95.40
2017-12-17T06:28:08.775Z,95.40
2017-12-17T06:29:08.735Z,95.12
2017-12-17T06:30:08.692Z,95.50
2017-12-17T06:31:08.650Z,95.31
2017-12-17T06:32:08.610Z,95.40
2017-12-17T06:33:08.570Z,95.69
2017-12-17T06:34:08.528Z,95.31
2017-12-17T06:35:08.514Z,95.40
2017-12-17T06:36:08.443Z,95.88
2017-12-17T06:37:08.404Z,95.59
2017-12-17T06:38:08.361Z,95.50
2017-12-17T06:39:08.320Z,95.78
2017-12-17T06:40:08.276Z,94.93
2017-12-17T06:41:08.237Z,94.93
2017-12-17T06:42:08.196Z,95.69
2017-12-17T06:43:08.157Z,95.21
2017-12-17T06:44:08.110Z,95.78
2017-12-17T06:45:08.072Z,95.12
2017-12-17T06:46:08.029Z,95.64
2017-12-17T06:47:08.375Z,95.07
2017-12-17T06:48:07.948Z,95.31
2017-12-17T06:49:07.903Z,94.79
2017-12-17T06:50:07.861Z,94.74
2017-12-17T06:51:07.821Z,94.60
2017-12-17T06:52:07.778Z,94.65
2017-12-17T06:53:07.769Z,94.74
2017-12-17T06:54:07.696Z,94.46
2017-12-17T06:55:07.655Z,94.56
2017-12-17T06:56:07.660Z,95.03
2017-12-17T06:57:07.572Z,94.84
2017-12-17T06:58:07.529Z,94.93
2017-12-17T06:59:07.489Z,95.21
2017-12-17T07:00:07.446Z,95.12
2017-12-17T07:01:07.404Z,95.03
2017-12-17T07:02:07.366Z,95.03
2017-12-17T07:03:07.332Z,94.46
2017-12-17T07:04:07.285Z,95.12
2017-12-17T07:05:07.243Z,94.84
2017-12-17T07:06:07.198Z,94.84
2017-12-17T07:07:07.157Z,94.46
2017-12-17T07:08:07.114Z,94.93
2017-12-17T07:09:07.073Z,95.69
2017-12-17T07:10:07.031Z,95.21
2017-12-17T07:11:06.992Z,95.69
2017-12-17T07:12:06.951Z,95.50
2017-12-17T07:13:06.907Z,95.31
2017-12-17T07:14:06.940Z,95.50
2017-12-17T07:15:06.827Z,95.21
2017-12-17T07:16:06.944Z,95.78
2017-12-17T07:17:06.744Z,95.12
2017-12-17T07:18:06.944Z,95.31
2017-12-17T07:19:07.005Z,95.31
2017-12-17T07:20:06.619Z,94.84
2017-12-17T07:21:06.576Z,94.65
2017-12-17T07:22:06.536Z,94.56
2017-12-17T07:23:06.494Z,94.46
2017-12-17T07:24:06.455Z,94.84
2017-12-17T07:25:06.409Z,94.46
2017-12-17T07:26:06.372Z,94.84
2017-12-17T07:27:06.325Z,94.84
2017-12-17T07:28:06.287Z,94.84
2017-12-17T07:29:06.244Z,94.65
2017-12-17T07:30:06.200Z,95.21
2017-12-17T07:31:06.159Z,95.21
2017-12-17T07:32:06.117Z,94.18
2017-12-17T07:33:06.289Z,94.84
2017-12-17T07:34:06.038Z,94.84
2017-12-17T07:35:06.307Z,95.21
2017-12-17T07:36:05.953Z,95.59
2017-12-17T07:37:05.913Z,95.59
2017-12-17T07:38:05.872Z,95.31
2017-12-17T07:39:05.832Z,95.21
2017-12-17T07:40:05.789Z,95.40
2017-12-17T07:41:05.748Z,95.40
2017-12-17T07:42:05.706Z,95.69
2017-12-17T07:43:05.664Z,95.50
2017-12-17T07:44:05.627Z,95.12
2017-12-17T07:45:05.586Z,95.03
2017-12-17T07:46:05.540Z,94.93
2017-12-17T07:47:05.501Z,94.65
2017-12-17T07:48:05.457Z,95.78
2017-12-17T07:49:05.418Z,95.40
2017-12-17T07:50:05.375Z,95.31
2017-12-17T07:51:05.335Z,95.21
2017-12-17T07:52:05.290Z,95.03
2017-12-17T07:53:05.252Z,95.03
2017-12-17T07:54:05.210Z,94.84
2017-12-17T07:55:05.169Z,95.31
2017-12-17T07:56:05.126Z,95.50
2017-12-17T07:57:05.086Z,94.93
2017-12-17T07:58:05.051Z,95.59
2017-12-17T07:59:05.002Z,95.50
2017-12-17T08:00:04.964Z,95.50
2017-12-17T08:01:04.922Z,95.31
2017-12-17T08:02:04.880Z,95.21
2017-12-17T08:03:04.843Z,95.69
2017-12-17T08:04:04.796Z,95.69
2017-12-17T08:05:04.960Z,95.50
2017-12-17T08:06:04.714Z,95.50
2017-12-17T08:07:04.672Z,95.78
2017-12-17T08:08:04.632Z,95.21
2017-12-17T08:09:04.589Z,95.12
2017-12-17T08:10:04.548Z,95.31
2017-12-17T08:11:04.505Z,95.40
2017-12-17T08:12:04.830Z,95.21
2017-12-17T08:13:04.425Z,95.59
2017-12-17T08:14:04.385Z,95.03
2017-12-17T08:15:04.343Z,95.12
2017-12-17T08:16:04.302Z,95.03
2017-12-17T08:17:04.260Z,95.69
2017-12-17T08:18:04.218Z,95.03
2017-12-17T08:19:04.178Z,94.93
2017-12-17T08:20:04.136Z,95.12
2017-12-17T08:21:04.095Z,95.31
2017-12-17T08:22:04.053Z,95.31
2017-12-17T08:23:04.011Z,95.03
2017-12-17T08:24:03.971Z,94.93
2017-12-17T08:25:03.933Z,94.84
2017-12-17T08:26:03.895Z,94.79
2017-12-17T08:27:03.860Z,94.98
2017-12-17T08:28:03.810Z,95.07
2017-12-17T08:29:03.768Z,95.64
2017-12-17T08:30:03.726Z,95.55
2017-12-17T08:31:03.685Z,95.55
2017-12-17T08:32:03.644Z,95.93
2017-12-17T08:33:03.602Z,95.83
2017-12-17T08:34:03.561Z,95.83
2017-12-17T08:35:03.522Z,95.55
2017-12-17T08:36:03.479Z,95.55
2017-12-17T08:37:03.579Z,96.12
2017-12-17T08:38:03.398Z,95.45
2017-12-17T08:39:03.360Z,95.55
2017-12-17T08:40:03.315Z,95.55
2017-12-17T08:41:03.273Z,96.12
2017-12-17T08:42:03.234Z,95.93
2017-12-17T08:43:03.194Z,95.64
2017-12-17T08:44:03.154Z,95.74
2017-12-17T08:45:03.112Z,95.74
2017-12-17T08:46:03.070Z,96.50
2017-12-17T08:47:03.032Z,95.83
2017-12-17T08:48:02.989Z,95.17
2017-12-17T08:49:02.950Z,94.13
2017-12-17T08:50:02.948Z,95.74
2017-12-17T08:51:02.867Z,95.74
2017-12-17T08:52:02.909Z,95.83
2017-12-17T08:53:02.785Z,96.12
2017-12-17T08:54:02.747Z,96.69
2017-12-17T08:55:02.706Z,96.40
2017-12-17T08:56:02.665Z,96.40
2017-12-17T08:57:02.622Z,95.74
2017-12-17T08:58:02.583Z,95.64
2017-12-17T08:59:02.542Z,95.83
2017-12-17T09:00:02.596Z,95.64
2017-12-17T09:01:02.470Z,95.83
2017-12-17T09:02:02.423Z,95.83
2017-12-17T09:03:02.380Z,96.12
2017-12-17T09:04:02.338Z,96.21
2017-12-17T09:05:02.299Z,95.93
2017-12-17T09:06:02.259Z,95.74
2017-12-17T09:07:02.216Z,95.45
2017-12-17T09:08:02.176Z,96.12
2017-12-17T09:09:02.135Z,95.74
2017-12-17T09:10:02.095Z,95.64
2017-12-17T09:11:02.056Z,96.69
2017-12-17T09:12:02.015Z,95.74
2017-12-17T09:13:02.264Z,95.74
2017-12-17T09:14:01.941Z,96.78
2017-12-17T09:15:01.891Z,96.31
2017-12-17T09:16:01.851Z,96.50
2017-12-17T09:17:01.811Z,96.50
2017-12-17T09:18:01.832Z,95.83
2017-12-17T09:19:02.261Z,96.50
2017-12-17T09:20:01.688Z,95.74
2017-12-17T09:21:01.647Z,96.21
2017-12-17T09:22:01.607Z,96.12
2017-12-17T09:23:01.566Z,95.55
2017-12-17T09:24:01.542Z,95.55
2017-12-17T09:25:01.483Z,95.55
2017-12-17T09:26:01.445Z,95.64
2017-12-17T09:27:01.403Z,96.31
2017-12-17T09:28:01.362Z,96.40
2017-12-17T09:29:01.322Z,95.64
2017-12-17T09:30:01.282Z,96.40
2017-12-17T09:31:01.242Z,96.50
2017-12-17T09:32:01.202Z,97.49
2017-12-17T09:33:01.161Z,98.25
2017-12-17T09:34:01.120Z,97.63
2017-12-17T09:35:01.078Z,98.20
2017-12-17T09:36:01.039Z,99.10
2017-12-17T09:37:00.998Z,99.99
2017-12-17T09:38:00.956Z,99.20
2017-12-17T09:39:00.918Z,99.96
2017-12-17T09:40:00.878Z,98.72
2017-12-17T09:41:00.837Z,98.91
2017-12-17T09:42:00.798Z,98.06
2017-12-17T09:43:00.758Z,99.77
2017-12-17T09:44:00.718Z,99.86
2017-12-17T09:45:00.677Z,99.99
2017-12-17T09:46:00.642Z,99.77
2017-12-17T09:47:00.723Z,99.01
2017-12-17T09:48:00.557Z,99.86
2017-12-17T09:49:00.516Z,99.99
2017-12-17T09:50:00.476Z,99.77
2017-12-17T09:51:00.440Z,99.86
2017-12-17T09:52:00.397Z,99.58
2017-12-17T09:53:00.360Z,99.58
2017-12-17T09:54:00.338Z,99.99
2017-12-17T09:55:00.280Z,99.10
2017-12-17T09:56:00.242Z,99.67
2017-12-17T09:57:00.205Z,99.99
2017-12-17T09:58:00.160Z,99.67
2017-12-17T09:59:00.130Z,99.77
2017-12-17T10:00:00.081Z,99.99
2017-12-17T10:01:00.040Z,99.77
2017-12-17T10:02:00.000Z,99.99
2017-12-17T10:02:59.960Z,99.99
2017-12-17T10:03:59.919Z,99.99
2017-12-17T10:04:59.881Z,99.99
2017-12-17T10:05:59.841Z,99.99
2017-12-17T10:06:59.803Z,99.99
2017-12-17T10:07:59.763Z,99.99
2017-12-17T10:08:59.723Z,99.99
2017-12-17T10:09:59.686Z,99.99
2017-12-17T10:10:59.646Z,99.99
2017-12-17T10:11:59.605Z,99.99
2017-12-17T10:12:59.564Z,99.67
2017-12-17T10:13:59.526Z,99.99
2017-12-17T10:14:59.488Z,99.99
2017-12-17T10:15:59.447Z,99.77
2017-12-17T10:16:59.406Z,99.99
2017-12-17T10:17:59.367Z,99.99
2017-12-17T10:18:59.328Z,99.99
2017-12-17T10:19:59.288Z,99.99
2017-12-17T10:20:59.259Z,99.99
2017-12-17T10:21:59.209Z,99.90
2017-12-17T10:22:59.171Z,99.86
2017-12-17T10:23:59.130Z,99.99
2017-12-17T10:24:59.093Z,99.99
2017-12-17T10:25:59.049Z,99.99
2017-12-17T10:26:59.011Z,99.99
2017-12-17T10:27:58.973Z,99.99
2017-12-17T10:28:58.930Z,99.99
2017-12-17T10:29:58.892Z,99.86
2017-12-17T10:30:58.851Z,99.58
2017-12-17T10:31:58.812Z,99.99
2017-12-17T10:32:58.773Z,99.99
2017-12-17T10:33:58.731Z,99.77
2017-12-17T10:34:58.695Z,99.99
2017-12-17T10:35:58.655Z,99.99
2017-12-17T10:36:58.615Z,99.99
2017-12-17T10:37:58.576Z,99.99
2017-12-17T10:38:58.535Z,99.99
2017-12-17T10:39:58.495Z,99.99
2017-12-17T10:40:58.458Z,99.99
2017-12-17T10:41:58.421Z,99.99
2017-12-17T10:42:58.378Z,99.99
2017-12-17T10:43:58.337Z,99.99
2017-12-17T10:44:58.299Z,99.99
2017-12-17T10:45:58.262Z,99.99
2017-12-17T10:46:58.222Z,99.99
2017-12-17T10:47:58.188Z,99.99
2017-12-17T10:48:58.143Z,99.99
2017-12-17T10:49:58.102Z,99.99
2017-12-17T10:50:58.064Z,99.99
2017-12-17T10:51:58.025Z,99.99
2017-12-17T10:52:57.988Z,99.99
2017-12-17T10:53:57.948Z,99.99
2017-12-17T10:54:57.909Z,99.99
2017-12-17T10:55:57.872Z,99.99
2017-12-17T10:56:57.831Z,99.99
2017-12-17T10:57:57.793Z,99.99
2017-12-17T10:58:57.754Z,99.99
2017-12-17T10:59:57.715Z,99.99
2017-12-17T11:00:57.672Z,99.99
2017-12-17T11:01:57.632Z,99.99
2017-12-17T11:02:57.595Z,99.99
2017-12-17T11:03:57.558Z,99.99
2017-12-17T11:04:57.571Z,99.99
2017-12-17T11:05:57.476Z,99.99
2017-12-17T11:06:57.438Z,99.99
2017-12-17T11:07:57.398Z,99.99
2017-12-17T11:08:57.363Z,99.99
2017-12-17T11:09:57.319Z,99.99
2017-12-17T11:10:57.279Z,99.99
2017-12-17T11:11:57.241Z,99.99
2017-12-17T11:12:57.198Z,99.99
2017-12-17T11:13:57.161Z,99.99
2017-12-17T11:14:57.120Z,99.99
2017-12-17T11:15:57.082Z,99.99
2017-12-17T11:16:57.042Z,99.99
2017-12-17T11:17:57.002Z,99.99
2017-12-17T11:18:56.962Z,99.99
2017-12-17T11:19:56.925Z,99.99
2017-12-17T11:20:56.883Z,99.99
2017-12-17T11:21:56.844Z,99.99
2017-12-17T11:22:56.840Z,99.99
2017-12-17T11:23:56.766Z,99.99
2017-12-17T11:24:56.723Z,99.99
2017-12-17T11:25:56.691Z,99.99
2017-12-17T11:26:56.647Z,99.99
2017-12-17T11:27:56.607Z,99.99
2017-12-17T11:28:56.568Z,99.99
2017-12-17T11:29:56.532Z,99.99
2017-12-17T11:30:56.487Z,99.99
2017-12-17T11:31:56.447Z,99.99
2017-12-17T11:32:56.408Z,99.99
2017-12-17T11:33:56.367Z,99.99
2017-12-17T11:34:56.328Z,99.99
2017-12-17T11:35:56.290Z,99.99
2017-12-17T11:36:56.251Z,99.99
2017-12-17T11:37:56.213Z,99.99
2017-12-17T11:38:56.183Z,99.99
2017-12-17T11:39:56.131Z,99.99
2017-12-17T11:40:56.092Z,99.99
2017-12-17T11:41:56.052Z,99.99
2017-12-17T11:42:56.013Z,99.99
2017-12-17T11:43:56.314Z,99.99
2017-12-17T11:44:55.936Z,99.99
2017-12-17T11:45:56.315Z,99.99
2017-12-17T11:46:55.855Z,99.99
2017-12-17T11:47:55.815Z,99.99
2017-12-17T11:48:55.777Z,99.99
2017-12-17T11:49:55.735Z,99.99
2017-12-17T11:50:55.698Z,99.99
2017-12-17T11:51:55.663Z,99.99
2017-12-17T11:52:55.620Z,99.99
2017-12-17T11:53:55.578Z,99.99
2017-12-17T11:54:55.543Z,99.99
2017-12-17T11:55:55.498Z,99.99
2017-12-17T11:56:55.458Z,99.99
2017-12-17T11:57:55.421Z,99.99
2017-12-17T11:58:55.379Z,99.99
2017-12-17T11:59:55.343Z,99.99
2017-12-17T12:00:55.647Z,99.99
2017-12-17T12:01:55.262Z,99.99
2017-12-17T12:02:55.224Z,99.99
2017-12-17T12:03:55.253Z,99.99
2017-12-17T12:04:55.141Z,99.99
2017-12-17T12:05:55.105Z,99.99
2017-12-17T12:06:55.066Z,99.99
2017-12-17T12:07:55.026Z,99.99
2017-12-17T12:08:54.984Z,99.99
2017-12-17T12:09:54.947Z,99.99
2017-12-17T12:10:54.931Z,99.99
2017-12-17T12:11:54.868Z,99.99
2017-12-17T12:12:54.826Z,99.99
2017-12-17T12:13:54.788Z,99.99
2017-12-17T12:14:54.851Z,99.99
2017-12-17T12:15:54.709Z,99.99
2017-12-17T12:16:54.666Z,99.99
2017-12-17T12:17:54.628Z,99.99
2017-12-17T12:18:54.589Z,99.99
2017-12-17T12:19:54.548Z,99.99
2017-12-17T12:20:54.506Z,99.99
2017-12-17T12:21:54.471Z,99.99
2017-12-17T12:22:54.429Z,99.99
2017-12-17T12:23:54.403Z,99.99
2017-12-17T12:24:54.348Z,99.99
2017-12-17T12:25:54.316Z,99.99
2017-12-17T12:26:54.274Z,99.99
2017-12-17T12:27:54.230Z,99.99
2017-12-17T12:28:54.193Z,99.99
2017-12-17T12:29:54.149Z,99.99
2017-12-17T12:30:54.294Z,99.99
2017-12-17T12:31:54.076Z,99.99
2017-12-17T12:32:54.034Z,99.99
2017-12-17T12:33:53.994Z,99.99
2017-12-17T12:34:53.959Z,99.99
2017-12-17T12:35:53.917Z,99.99
2017-12-17T12:36:53.885Z,99.99
2017-12-17T12:37:53.837Z,99.99
2017-12-17T12:38:53.838Z,99.99
2017-12-17T12:39:54.033Z,99.99
2017-12-17T12:40:53.720Z,99.99
2017-12-17T12:41:53.683Z,99.99
2017-12-17T12:42:53.645Z,99.99
2017-12-17T12:43:53.628Z,99.99
2017-12-17T12:44:53.566Z,99.99
2017-12-17T12:45:53.528Z,99.99
2017-12-17T12:46:53.491Z,99.99
2017-12-17T12:47:53.449Z,99.99
2017-12-17T12:48:53.410Z,99.99
2017-12-17T12:49:53.372Z,99.99
2017-12-17T12:50:53.336Z,99.99
2017-12-17T12:51:53.299Z,99.99